sensor_id;sensor_type;location;lat;lon;timestamp;temperature;humidity
6270;DHT22;3168;51.684;6.954;2023-07-31T00:01:57;15.20;99.90
6270;DHT22;3168;51.684;6.954;2023-07-31T00:04:23;15.10;99.90
6270;DHT22;3168;51.684;6.954;2023-07-31T00:06:49;15.10;99.90
6270;DHT22;3168;51.684;6.954;2023-07-31T00:09:15;15.10;99.90
6270;DHT22;3168;51.684;6.954;2023-07-31T00:11:40;15.10;99.90
6270;DHT22;3168;51.684;6.954;2023-07-31T00:14:06;15.10;99.90
6270;DHT22;3168;51.684;6.954;2023-07-31T00:16:32;15.10;99.90
6270;DHT22;3168;51.684;6.954;2023-07-31T00:18:58;15.10;99.90
6270;DHT22;3168;51.684;6.954;2023-07-31T00:21:23;15.10;99.90
6270;DHT22;3168;51.684;6.954;2023-07-31T00:23:49;15.20;99.90
6270;DHT22;3168;51.684;6.954;2023-07-31T00:26:15;15.30;99.90
6270;DHT22;3168;51.684;6.954;2023-07-31T00:28:41;15.30;99.90
6270;DHT22;3168;51.684;6.954;2023-07-31T00:31:07;15.30;99.90
6270;DHT22;3168;51.684;6.954;2023-07-31T00:33:34;15.20;99.90
6270;DHT22;3168;51.684;6.954;2023-07-31T00:35:58;15.30;99.90
6270;DHT22;3168;51.684;6.954;2023-07-31T00:38:25;15.30;99.90
6270;DHT22;3168;51.684;6.954;2023-07-31T00:40:50;15.30;99.90
6270;DHT22;3168;51.684;6.954;2023-07-31T00:43:16;15.40;99.90
6270;DHT22;3168;51.684;6.954;2023-07-31T00:45:43;15.50;99.90
6270;DHT22;3168;51.684;6.954;2023-07-31T00:48:09;15.50;99.90
6270;DHT22;3168;51.684;6.954;2023-07-31T00:50:34;15.50;99.90
6270;DHT22;3168;51.684;6.954;2023-07-31T00:53:00;15.60;99.90
6270;DHT22;3168;51.684;6.954;2023-07-31T00:55:26;15.70;99.90
6270;DHT22;3168;51.684;6.954;2023-07-31T00:57:52;15.80;99.90
6270;DHT22;3168;51.684;6.954;2023-07-31T01:00:18;15.90;99.90
6270;DHT22;3168;51.684;6.954;2023-07-31T01:02:43;15.90;99.90
6270;DHT22;3168;51.684;6.954;2023-07-31T01:05:09;15.90;99.90
6270;DHT22;3168;51.684;6.954;2023-07-31T01:07:49;16.00;99.90
6270;DHT22;3168;51.684;6.954;2023-07-31T01:10:15;16.00;99.90
6270;DHT22;3168;51.684;6.954;2023-07-31T01:12:40;16.10;99.90
6270;DHT22;3168;51.684;6.954;2023-07-31T01:15:07;16.10;99.90
6270;DHT22;3168;51.684;6.954;2023-07-31T01:17:32;16.00;99.90
6270;DHT22;3168;51.684;6.954;2023-07-31T01:19:59;16.10;99.90
6270;DHT22;3168;51.684;6.954;2023-07-31T01:23:42;16.10;99.90
6270;DHT22;3168;51.684;6.954;2023-07-31T01:27:59;16.10;99.90
6270;DHT22;3168;51.684;6.954;2023-07-31T01:30:25;16.10;99.90
6270;DHT22;3168;51.684;6.954;2023-07-31T01:32:50;16.10;99.90
6270;DHT22;3168;51.684;6.954;2023-07-31T01:35:16;16.10;99.90
6270;DHT22;3168;51.684;6.954;2023-07-31T01:37:42;16.10;99.90
6270;DHT22;3168;51.684;6.954;2023-07-31T01:40:08;16.10;99.90
6270;DHT22;3168;51.684;6.954;2023-07-31T01:42:34;16.10;99.90
6270;DHT22;3168;51.684;6.954;2023-07-31T01:45:00;16.10;99.90
6270;DHT22;3168;51.684;6.954;2023-07-31T01:47:26;16.10;99.90
6270;DHT22;3168;51.684;6.954;2023-07-31T01:49:52;16.10;99.90
6270;DHT22;3168;51.684;6.954;2023-07-31T01:52:18;16.10;99.90
6270;DHT22;3168;51.684;6.954;2023-07-31T01:54:44;16.20;99.90
6270;DHT22;3168;51.684;6.954;2023-07-31T01:57:09;16.20;99.90
6270;DHT22;3168;51.684;6.954;2023-07-31T01:59:35;16.10;99.90
6270;DHT22;3168;51.684;6.954;2023-07-31T02:02:01;16.10;99.90
6270;DHT22;3168;51.684;6.954;2023-07-31T02:04:27;16.10;99.90
6270;DHT22;3168;51.684;6.954;2023-07-31T02:06:53;16.10;99.90
6270;DHT22;3168;51.684;6.954;2023-07-31T02:09:18;16.10;99.90
6270;DHT22;3168;51.684;6.954;2023-07-31T02:11:45;16.20;99.90
6270;DHT22;3168;51.684;6.954;2023-07-31T02:14:11;16.10;99.90
6270;DHT22;3168;51.684;6.954;2023-07-31T02:16:37;16.10;99.90
6270;DHT22;3168;51.684;6.954;2023-07-31T02:19:02;16.10;99.90
6270;DHT22;3168;51.684;6.954;2023-07-31T02:21:28;16.10;99.90
6270;DHT22;3168;51.684;6.954;2023-07-31T02:23:54;16.10;99.90
6270;DHT22;3168;51.684;6.954;2023-07-31T02:26:20;16.10;99.90
6270;DHT22;3168;51.684;6.954;2023-07-31T02:28:46;16.10;99.90
6270;DHT22;3168;51.684;6.954;2023-07-31T02:31:11;16.10;99.90
6270;DHT22;3168;51.684;6.954;2023-07-31T02:33:37;16.10;99.90
6270;DHT22;3168;51.684;6.954;2023-07-31T02:36:03;16.10;99.90
6270;DHT22;3168;51.684;6.954;2023-07-31T02:38:29;16.10;99.90
6270;DHT22;3168;51.684;6.954;2023-07-31T02:40:55;16.10;99.90
6270;DHT22;3168;51.684;6.954;2023-07-31T02:43:22;16.10;99.90
6270;DHT22;3168;51.684;6.954;2023-07-31T02:45:51;16.10;99.90
6270;DHT22;3168;51.684;6.954;2023-07-31T02:48:16;16.10;99.90
6270;DHT22;3168;51.684;6.954;2023-07-31T02:50:43;16.10;99.90
6270;DHT22;3168;51.684;6.954;2023-07-31T02:53:10;16.10;99.90
6270;DHT22;3168;51.684;6.954;2023-07-31T02:55:35;16.00;98.80
6270;DHT22;3168;51.684;6.954;2023-07-31T02:58:02;16.10;96.30
6270;DHT22;3168;51.684;6.954;2023-07-31T03:00:28;16.10;96.70
6270;DHT22;3168;51.684;6.954;2023-07-31T03:02:54;16.00;94.90
6270;DHT22;3168;51.684;6.954;2023-07-31T03:05:20;16.10;91.90
6270;DHT22;3168;51.684;6.954;2023-07-31T03:07:46;16.10;92.50
6270;DHT22;3168;51.684;6.954;2023-07-31T03:10:12;16.10;91.70
6270;DHT22;3168;51.684;6.954;2023-07-31T03:12:38;16.10;87.80
6270;DHT22;3168;51.684;6.954;2023-07-31T03:15:04;16.10;88.90
6270;DHT22;3168;51.684;6.954;2023-07-31T03:17:30;16.10;87.10
6270;DHT22;3168;51.684;6.954;2023-07-31T03:19:55;16.00;79.40
6270;DHT22;3168;51.684;6.954;2023-07-31T03:22:21;16.10;77.50
6270;DHT22;3168;51.684;6.954;2023-07-31T03:24:47;16.10;74.00
6270;DHT22;3168;51.684;6.954;2023-07-31T03:27:13;16.10;75.30
6270;DHT22;3168;51.684;6.954;2023-07-31T03:29:39;16.20;71.10
6270;DHT22;3168;51.684;6.954;2023-07-31T03:32:05;16.10;61.40
6270;DHT22;3168;51.684;6.954;2023-07-31T03:34:31;16.10;65.20
6270;DHT22;3168;51.684;6.954;2023-07-31T03:36:56;16.10;65.10
6270;DHT22;3168;51.684;6.954;2023-07-31T03:39:22;16.10;62.80
6270;DHT22;3168;51.684;6.954;2023-07-31T03:41:49;16.20;66.00
6270;DHT22;3168;51.684;6.954;2023-07-31T03:44:15;16.20;63.00
6270;DHT22;3168;51.684;6.954;2023-07-31T03:46:41;16.20;58.10
6270;DHT22;3168;51.684;6.954;2023-07-31T03:49:07;16.20;55.90
6270;DHT22;3168;51.684;6.954;2023-07-31T03:51:32;16.10;60.60
6270;DHT22;3168;51.684;6.954;2023-07-31T03:53:58;16.20;65.30
6270;DHT22;3168;51.684;6.954;2023-07-31T03:56:24;16.20;59.00
6270;DHT22;3168;51.684;6.954;2023-07-31T03:58:50;16.20;58.70
6270;DHT22;3168;51.684;6.954;2023-07-31T04:01:16;16.30;50.50
6270;DHT22;3168;51.684;6.954;2023-07-31T04:03:41;16.20;55.00
6270;DHT22;3168;51.684;6.954;2023-07-31T04:06:07;16.20;57.00
6270;DHT22;3168;51.684;6.954;2023-07-31T04:08:33;16.20;55.80
6270;DHT22;3168;51.684;6.954;2023-07-31T04:10:59;16.30;59.90
6270;DHT22;3168;51.684;6.954;2023-07-31T04:13:25;16.30;54.20
6270;DHT22;3168;51.684;6.954;2023-07-31T04:15:50;16.20;58.20
6270;DHT22;3168;51.684;6.954;2023-07-31T04:18:16;16.20;56.00
6270;DHT22;3168;51.684;6.954;2023-07-31T04:20:43;16.30;58.10
6270;DHT22;3168;51.684;6.954;2023-07-31T04:23:09;16.30;52.20
6270;DHT22;3168;51.684;6.954;2023-07-31T04:25:35;16.30;54.60
6270;DHT22;3168;51.684;6.954;2023-07-31T04:28:01;16.30;51.60
6270;DHT22;3168;51.684;6.954;2023-07-31T04:30:26;16.30;54.40
6270;DHT22;3168;51.684;6.954;2023-07-31T04:32:52;16.30;52.40
6270;DHT22;3168;51.684;6.954;2023-07-31T04:35:18;16.30;53.10
6270;DHT22;3168;51.684;6.954;2023-07-31T04:37:44;16.40;53.70
6270;DHT22;3168;51.684;6.954;2023-07-31T04:40:10;16.40;52.20
6270;DHT22;3168;51.684;6.954;2023-07-31T04:42:36;16.40;51.20
6270;DHT22;3168;51.684;6.954;2023-07-31T04:45:02;16.40;48.50
6270;DHT22;3168;51.684;6.954;2023-07-31T04:47:29;16.50;42.50
6270;DHT22;3168;51.684;6.954;2023-07-31T04:49:55;16.40;41.00
6270;DHT22;3168;51.684;6.954;2023-07-31T04:52:21;16.50;45.80
6270;DHT22;3168;51.684;6.954;2023-07-31T04:54:47;16.50;46.30
6270;DHT22;3168;51.684;6.954;2023-07-31T04:57:12;16.50;48.00
6270;DHT22;3168;51.684;6.954;2023-07-31T04:59:38;16.60;43.30
6270;DHT22;3168;51.684;6.954;2023-07-31T05:02:04;16.60;43.50
6270;DHT22;3168;51.684;6.954;2023-07-31T05:04:30;16.70;35.10
6270;DHT22;3168;51.684;6.954;2023-07-31T05:06:56;16.70;33.60
6270;DHT22;3168;51.684;6.954;2023-07-31T05:09:22;16.80;33.30
6270;DHT22;3168;51.684;6.954;2023-07-31T05:11:48;16.80;35.70
6270;DHT22;3168;51.684;6.954;2023-07-31T05:14:14;16.80;34.00
6270;DHT22;3168;51.684;6.954;2023-07-31T05:16:39;16.80;35.40
6270;DHT22;3168;51.684;6.954;2023-07-31T05:19:05;16.80;37.10
6270;DHT22;3168;51.684;6.954;2023-07-31T05:21:31;16.80;39.90
6270;DHT22;3168;51.684;6.954;2023-07-31T05:23:57;16.80;42.50
6270;DHT22;3168;51.684;6.954;2023-07-31T05:26:23;16.80;46.40
6270;DHT22;3168;51.684;6.954;2023-07-31T05:28:49;16.80;46.60
6270;DHT22;3168;51.684;6.954;2023-07-31T05:31:15;16.80;46.70
6270;DHT22;3168;51.684;6.954;2023-07-31T05:33:40;16.90;47.00
6270;DHT22;3168;51.684;6.954;2023-07-31T05:36:06;16.90;45.90
6270;DHT22;3168;51.684;6.954;2023-07-31T05:38:32;16.80;42.60
6270;DHT22;3168;51.684;6.954;2023-07-31T05:40:58;16.90;44.60
6270;DHT22;3168;51.684;6.954;2023-07-31T05:43:24;16.90;47.50
6270;DHT22;3168;51.684;6.954;2023-07-31T05:45:50;17.00;42.40
6270;DHT22;3168;51.684;6.954;2023-07-31T05:48:15;17.00;39.60
6270;DHT22;3168;51.684;6.954;2023-07-31T05:50:41;17.00;37.60
6270;DHT22;3168;51.684;6.954;2023-07-31T05:53:07;17.00;41.00
6270;DHT22;3168;51.684;6.954;2023-07-31T05:55:33;17.00;45.50
6270;DHT22;3168;51.684;6.954;2023-07-31T05:57:58;17.10;42.10
6270;DHT22;3168;51.684;6.954;2023-07-31T06:00:24;17.10;40.30
6270;DHT22;3168;51.684;6.954;2023-07-31T06:02:50;17.10;41.60
6270;DHT22;3168;51.684;6.954;2023-07-31T06:05:16;17.10;41.50
6270;DHT22;3168;51.684;6.954;2023-07-31T06:07:42;17.10;42.30
6270;DHT22;3168;51.684;6.954;2023-07-31T06:10:08;17.10;42.30
6270;DHT22;3168;51.684;6.954;2023-07-31T06:12:34;17.10;44.60
6270;DHT22;3168;51.684;6.954;2023-07-31T06:15:00;17.20;54.20
6270;DHT22;3168;51.684;6.954;2023-07-31T06:17:26;17.10;52.20
6270;DHT22;3168;51.684;6.954;2023-07-31T06:19:52;17.20;51.80
6270;DHT22;3168;51.684;6.954;2023-07-31T06:22:17;17.10;55.40
6270;DHT22;3168;51.684;6.954;2023-07-31T06:24:44;17.10;62.20
6270;DHT22;3168;51.684;6.954;2023-07-31T06:27:10;17.10;60.30
6270;DHT22;3168;51.684;6.954;2023-07-31T06:29:36;17.10;61.30
6270;DHT22;3168;51.684;6.954;2023-07-31T06:32:02;16.90;75.50
6270;DHT22;3168;51.684;6.954;2023-07-31T06:34:27;16.80;90.50
6270;DHT22;3168;51.684;6.954;2023-07-31T06:36:53;16.60;99.00
6270;DHT22;3168;51.684;6.954;2023-07-31T06:39:19;16.50;99.90
6270;DHT22;3168;51.684;6.954;2023-07-31T06:41:45;16.50;99.90
6270;DHT22;3168;51.684;6.954;2023-07-31T06:44:11;16.50;99.90
6270;DHT22;3168;51.684;6.954;2023-07-31T06:46:36;16.40;99.90
6270;DHT22;3168;51.684;6.954;2023-07-31T06:49:02;16.40;99.90
6270;DHT22;3168;51.684;6.954;2023-07-31T06:51:28;16.40;99.90
6270;DHT22;3168;51.684;6.954;2023-07-31T06:53:54;16.50;99.90
6270;DHT22;3168;51.684;6.954;2023-07-31T06:56:20;16.50;99.90
6270;DHT22;3168;51.684;6.954;2023-07-31T06:58:45;16.50;99.90
6270;DHT22;3168;51.684;6.954;2023-07-31T07:01:11;16.50;99.90
6270;DHT22;3168;51.684;6.954;2023-07-31T07:03:37;16.50;99.90
6270;DHT22;3168;51.684;6.954;2023-07-31T07:06:03;16.50;99.90
6270;DHT22;3168;51.684;6.954;2023-07-31T07:08:29;16.60;99.90
6270;DHT22;3168;51.684;6.954;2023-07-31T07:10:54;16.60;99.90
6270;DHT22;3168;51.684;6.954;2023-07-31T07:13:21;16.70;99.90
6270;DHT22;3168;51.684;6.954;2023-07-31T07:15:47;16.60;99.90
6270;DHT22;3168;51.684;6.954;2023-07-31T07:18:13;16.60;99.90
6270;DHT22;3168;51.684;6.954;2023-07-31T07:20:39;16.50;99.90
6270;DHT22;3168;51.684;6.954;2023-07-31T07:23:05;16.60;99.90
6270;DHT22;3168;51.684;6.954;2023-07-31T07:25:30;16.60;99.90
6270;DHT22;3168;51.684;6.954;2023-07-31T07:27:56;16.60;99.90
6270;DHT22;3168;51.684;6.954;2023-07-31T07:30:22;16.60;99.90
6270;DHT22;3168;51.684;6.954;2023-07-31T07:32:48;16.50;99.90
6270;DHT22;3168;51.684;6.954;2023-07-31T07:35:14;16.50;99.90
6270;DHT22;3168;51.684;6.954;2023-07-31T07:37:39;16.60;99.90
6270;DHT22;3168;51.684;6.954;2023-07-31T07:40:06;16.60;99.90
6270;DHT22;3168;51.684;6.954;2023-07-31T07:42:32;16.50;99.90
6270;DHT22;3168;51.684;6.954;2023-07-31T07:44:58;16.60;99.90
6270;DHT22;3168;51.684;6.954;2023-07-31T07:47:24;16.60;99.90
6270;DHT22;3168;51.684;6.954;2023-07-31T07:49:50;16.60;99.90
6270;DHT22;3168;51.684;6.954;2023-07-31T07:52:16;16.60;99.90
6270;DHT22;3168;51.684;6.954;2023-07-31T07:54:41;16.60;99.90
6270;DHT22;3168;51.684;6.954;2023-07-31T07:57:07;16.50;99.90
6270;DHT22;3168;51.684;6.954;2023-07-31T07:59:33;16.60;99.90
6270;DHT22;3168;51.684;6.954;2023-07-31T08:01:59;16.60;99.90
6270;DHT22;3168;51.684;6.954;2023-07-31T08:04:25;16.60;99.90
6270;DHT22;3168;51.684;6.954;2023-07-31T08:06:50;16.60;99.90
6270;DHT22;3168;51.684;6.954;2023-07-31T08:09:16;16.60;99.90
6270;DHT22;3168;51.684;6.954;2023-07-31T08:11:42;16.60;99.90
6270;DHT22;3168;51.684;6.954;2023-07-31T08:14:08;16.60;99.90
6270;DHT22;3168;51.684;6.954;2023-07-31T08:16:33;16.60;99.90
6270;DHT22;3168;51.684;6.954;2023-07-31T08:18:59;16.60;99.90
6270;DHT22;3168;51.684;6.954;2023-07-31T08:21:25;16.60;99.90
6270;DHT22;3168;51.684;6.954;2023-07-31T08:23:51;16.60;99.90
6270;DHT22;3168;51.684;6.954;2023-07-31T08:26:17;16.50;99.90
6270;DHT22;3168;51.684;6.954;2023-07-31T08:28:42;16.50;99.90
6270;DHT22;3168;51.684;6.954;2023-07-31T08:31:08;16.40;99.90
6270;DHT22;3168;51.684;6.954;2023-07-31T08:33:34;16.50;99.90
6270;DHT22;3168;51.684;6.954;2023-07-31T08:36:00;16.60;99.90
6270;DHT22;3168;51.684;6.954;2023-07-31T08:38:26;16.50;99.90
6270;DHT22;3168;51.684;6.954;2023-07-31T08:40:52;16.50;99.90
6270;DHT22;3168;51.684;6.954;2023-07-31T08:43:18;16.50;99.90
6270;DHT22;3168;51.684;6.954;2023-07-31T08:45:43;16.40;99.90
6270;DHT22;3168;51.684;6.954;2023-07-31T08:48:09;16.50;99.90
6270;DHT22;3168;51.684;6.954;2023-07-31T08:50:35;16.40;99.90
6270;DHT22;3168;51.684;6.954;2023-07-31T08:53:00;16.50;99.90
6270;DHT22;3168;51.684;6.954;2023-07-31T08:55:26;16.50;99.90
6270;DHT22;3168;51.684;6.954;2023-07-31T08:57:52;16.40;99.90
6270;DHT22;3168;51.684;6.954;2023-07-31T09:00:19;16.50;99.90
6270;DHT22;3168;51.684;6.954;2023-07-31T09:02:46;16.60;99.90
6270;DHT22;3168;51.684;6.954;2023-07-31T09:05:11;16.60;99.90
6270;DHT22;3168;51.684;6.954;2023-07-31T09:07:37;16.60;99.90
6270;DHT22;3168;51.684;6.954;2023-07-31T09:10:03;16.60;99.90
6270;DHT22;3168;51.684;6.954;2023-07-31T09:12:29;16.70;99.90
6270;DHT22;3168;51.684;6.954;2023-07-31T09:14:55;16.60;99.90
6270;DHT22;3168;51.684;6.954;2023-07-31T09:17:30;16.60;99.90
6270;DHT22;3168;51.684;6.954;2023-07-31T09:19:55;16.70;99.90
6270;DHT22;3168;51.684;6.954;2023-07-31T09:22:31;16.60;99.90
6270;DHT22;3168;51.684;6.954;2023-07-31T09:24:57;16.60;99.90
6270;DHT22;3168;51.684;6.954;2023-07-31T09:27:23;16.60;99.90
6270;DHT22;3168;51.684;6.954;2023-07-31T09:29:58;16.70;99.90
6270;DHT22;3168;51.684;6.954;2023-07-31T09:32:15;16.70;99.90
6270;DHT22;3168;51.684;6.954;2023-07-31T09:34:41;16.70;99.90
6270;DHT22;3168;51.684;6.954;2023-07-31T09:37:07;16.60;99.90
6270;DHT22;3168;51.684;6.954;2023-07-31T09:39:32;16.60;99.90
6270;DHT22;3168;51.684;6.954;2023-07-31T09:41:58;16.70;99.90
6270;DHT22;3168;51.684;6.954;2023-07-31T09:44:39;16.70;99.90
6270;DHT22;3168;51.684;6.954;2023-07-31T09:47:05;16.80;99.90
6270;DHT22;3168;51.684;6.954;2023-07-31T09:49:30;16.80;99.90
6270;DHT22;3168;51.684;6.954;2023-07-31T09:51:56;16.70;99.90
6270;DHT22;3168;51.684;6.954;2023-07-31T09:54:22;16.80;99.90
6270;DHT22;3168;51.684;6.954;2023-07-31T09:56:48;16.80;99.90
6270;DHT22;3168;51.684;6.954;2023-07-31T09:59:14;16.90;99.90
6270;DHT22;3168;51.684;6.954;2023-07-31T10:01:39;16.90;99.90
6270;DHT22;3168;51.684;6.954;2023-07-31T10:04:05;16.80;99.90
6270;DHT22;3168;51.684;6.954;2023-07-31T10:06:31;16.90;99.90
6270;DHT22;3168;51.684;6.954;2023-07-31T10:08:57;16.90;99.90
6270;DHT22;3168;51.684;6.954;2023-07-31T10:11:23;16.80;99.90
6270;DHT22;3168;51.684;6.954;2023-07-31T10:13:49;16.80;99.90
6270;DHT22;3168;51.684;6.954;2023-07-31T10:16:15;16.90;99.90
6270;DHT22;3168;51.684;6.954;2023-07-31T10:18:40;17.00;99.90
6270;DHT22;3168;51.684;6.954;2023-07-31T10:21:06;16.90;99.90
6270;DHT22;3168;51.684;6.954;2023-07-31T10:23:32;16.90;99.90
6270;DHT22;3168;51.684;6.954;2023-07-31T10:25:58;16.90;99.90
6270;DHT22;3168;51.684;6.954;2023-07-31T10:28:24;16.90;99.90
6270;DHT22;3168;51.684;6.954;2023-07-31T10:30:50;16.90;99.90
6270;DHT22;3168;51.684;6.954;2023-07-31T10:33:15;16.90;99.90
6270;DHT22;3168;51.684;6.954;2023-07-31T10:35:42;16.90;99.90
6270;DHT22;3168;51.684;6.954;2023-07-31T10:38:09;16.90;99.90
6270;DHT22;3168;51.684;6.954;2023-07-31T10:40:34;16.90;99.90
6270;DHT22;3168;51.684;6.954;2023-07-31T10:43:00;16.90;99.90
6270;DHT22;3168;51.684;6.954;2023-07-31T10:45:35;16.90;99.90
6270;DHT22;3168;51.684;6.954;2023-07-31T10:48:02;16.80;99.90
6270;DHT22;3168;51.684;6.954;2023-07-31T10:50:27;16.90;99.90
6270;DHT22;3168;51.684;6.954;2023-07-31T10:52:54;17.00;99.90
6270;DHT22;3168;51.684;6.954;2023-07-31T10:55:27;16.90;99.90
6270;DHT22;3168;51.684;6.954;2023-07-31T10:57:53;16.90;99.90
6270;DHT22;3168;51.684;6.954;2023-07-31T11:00:27;17.00;99.90
6270;DHT22;3168;51.684;6.954;2023-07-31T11:03:12;17.10;99.90
6270;DHT22;3168;51.684;6.954;2023-07-31T11:06:01;17.10;99.90
6270;DHT22;3168;51.684;6.954;2023-07-31T11:08:27;17.00;99.90
6270;DHT22;3168;51.684;6.954;2023-07-31T11:11:05;17.10;99.90
6270;DHT22;3168;51.684;6.954;2023-07-31T11:13:39;17.10;99.90
6270;DHT22;3168;51.684;6.954;2023-07-31T11:16:00;17.20;99.90
6270;DHT22;3168;51.684;6.954;2023-07-31T11:18:26;17.20;99.90
6270;DHT22;3168;51.684;6.954;2023-07-31T11:20:52;17.30;99.90
6270;DHT22;3168;51.684;6.954;2023-07-31T11:23:18;17.60;99.90
6270;DHT22;3168;51.684;6.954;2023-07-31T11:25:44;17.70;99.90
6270;DHT22;3168;51.684;6.954;2023-07-31T11:28:11;17.70;99.90
6270;DHT22;3168;51.684;6.954;2023-07-31T11:30:36;17.70;96.30
6270;DHT22;3168;51.684;6.954;2023-07-31T11:33:02;17.80;94.80
6270;DHT22;3168;51.684;6.954;2023-07-31T11:35:27;17.80;95.00
6270;DHT22;3168;51.684;6.954;2023-07-31T11:37:53;17.70;91.60
6270;DHT22;3168;51.684;6.954;2023-07-31T11:40:19;17.70;91.80
6270;DHT22;3168;51.684;6.954;2023-07-31T11:42:45;17.80;97.00
6270;DHT22;3168;51.684;6.954;2023-07-31T11:45:11;17.70;96.90
6270;DHT22;3168;51.684;6.954;2023-07-31T11:47:37;17.90;99.90
6270;DHT22;3168;51.684;6.954;2023-07-31T11:50:04;18.00;99.90
6270;DHT22;3168;51.684;6.954;2023-07-31T11:52:31;18.00;99.90
6270;DHT22;3168;51.684;6.954;2023-07-31T11:54:56;18.00;94.90
6270;DHT22;3168;51.684;6.954;2023-07-31T11:57:21;18.20;96.70
6270;DHT22;3168;51.684;6.954;2023-07-31T11:59:47;18.30;92.60
6270;DHT22;3168;51.684;6.954;2023-07-31T12:02:13;18.40;79.40
6270;DHT22;3168;51.684;6.954;2023-07-31T12:04:39;18.40;71.30
6270;DHT22;3168;51.684;6.954;2023-07-31T12:07:05;18.40;76.40
6270;DHT22;3168;51.684;6.954;2023-07-31T12:09:31;18.40;74.10
6270;DHT22;3168;51.684;6.954;2023-07-31T12:11:57;18.30;75.90
6270;DHT22;3168;51.684;6.954;2023-07-31T12:14:24;18.30;85.00
6270;DHT22;3168;51.684;6.954;2023-07-31T12:17:04;18.20;81.90
6270;DHT22;3168;51.684;6.954;2023-07-31T12:19:30;18.20;82.30
6270;DHT22;3168;51.684;6.954;2023-07-31T12:21:56;18.30;78.10
6270;DHT22;3168;51.684;6.954;2023-07-31T12:24:22;18.40;68.40
6270;DHT22;3168;51.684;6.954;2023-07-31T12:26:48;18.40;66.40
6270;DHT22;3168;51.684;6.954;2023-07-31T12:29:14;18.40;67.00
6270;DHT22;3168;51.684;6.954;2023-07-31T12:31:40;18.30;62.50
6270;DHT22;3168;51.684;6.954;2023-07-31T12:34:14;18.30;59.80
6270;DHT22;3168;51.684;6.954;2023-07-31T12:36:31;18.30;58.60
6270;DHT22;3168;51.684;6.954;2023-07-31T12:38:57;18.50;62.00
6270;DHT22;3168;51.684;6.954;2023-07-31T12:41:23;18.60;58.10
6270;DHT22;3168;51.684;6.954;2023-07-31T12:43:48;18.70;51.60
6270;DHT22;3168;51.684;6.954;2023-07-31T12:46:14;18.90;47.20
6270;DHT22;3168;51.684;6.954;2023-07-31T12:48:40;18.90;45.70
6270;DHT22;3168;51.684;6.954;2023-07-31T12:51:06;18.90;38.90
6270;DHT22;3168;51.684;6.954;2023-07-31T12:53:33;19.00;29.90
6270;DHT22;3168;51.684;6.954;2023-07-31T12:55:59;19.10;24.20
6270;DHT22;3168;51.684;6.954;2023-07-31T12:58:24;19.20;28.00
6270;DHT22;3168;51.684;6.954;2023-07-31T13:00:51;19.20;22.00
6270;DHT22;3168;51.684;6.954;2023-07-31T13:03:17;19.20;21.80
6270;DHT22;3168;51.684;6.954;2023-07-31T13:05:42;19.20;20.30
6270;DHT22;3168;51.684;6.954;2023-07-31T13:08:08;19.20;17.50
6270;DHT22;3168;51.684;6.954;2023-07-31T13:10:34;19.30;16.60
6270;DHT22;3168;51.684;6.954;2023-07-31T13:13:00;19.40;12.10
6270;DHT22;3168;51.684;6.954;2023-07-31T13:15:26;19.60;10.20
6270;DHT22;3168;51.684;6.954;2023-07-31T13:17:52;19.60;10.00
6270;DHT22;3168;51.684;6.954;2023-07-31T13:20:18;19.50;12.60
6270;DHT22;3168;51.684;6.954;2023-07-31T13:22:43;19.60;12.60
6270;DHT22;3168;51.684;6.954;2023-07-31T13:25:09;19.40;17.50
6270;DHT22;3168;51.684;6.954;2023-07-31T13:27:35;19.40;23.80
6270;DHT22;3168;51.684;6.954;2023-07-31T13:30:01;19.30;24.00
6270;DHT22;3168;51.684;6.954;2023-07-31T13:32:27;19.00;28.20
6270;DHT22;3168;51.684;6.954;2023-07-31T13:34:53;19.00;28.00
6270;DHT22;3168;51.684;6.954;2023-07-31T13:37:20;19.00;32.10
6270;DHT22;3168;51.684;6.954;2023-07-31T13:39:45;18.90;30.70
6270;DHT22;3168;51.684;6.954;2023-07-31T13:42:11;18.80;42.20
6270;DHT22;3168;51.684;6.954;2023-07-31T13:44:39;18.80;55.70
6270;DHT22;3168;51.684;6.954;2023-07-31T13:47:04;18.80;65.90
6270;DHT22;3168;51.684;6.954;2023-07-31T13:49:30;18.90;63.20
6270;DHT22;3168;51.684;6.954;2023-07-31T13:51:57;18.90;61.40
6270;DHT22;3168;51.684;6.954;2023-07-31T13:54:22;18.80;62.70
6270;DHT22;3168;51.684;6.954;2023-07-31T13:56:48;18.80;73.20
6270;DHT22;3168;51.684;6.954;2023-07-31T13:59:14;18.80;81.30
6270;DHT22;3168;51.684;6.954;2023-07-31T14:01:39;18.90;85.00
6270;DHT22;3168;51.684;6.954;2023-07-31T14:04:05;19.00;83.00
6270;DHT22;3168;51.684;6.954;2023-07-31T14:06:31;19.20;67.20
6270;DHT22;3168;51.684;6.954;2023-07-31T14:08:57;19.20;56.80
6270;DHT22;3168;51.684;6.954;2023-07-31T14:11:23;19.50;50.40
6270;DHT22;3168;51.684;6.954;2023-07-31T14:13:49;19.30;29.10
6270;DHT22;3168;51.684;6.954;2023-07-31T14:16:14;19.30;37.70
6270;DHT22;3168;51.684;6.954;2023-07-31T14:18:40;19.30;36.90
6270;DHT22;3168;51.684;6.954;2023-07-31T14:21:06;19.30;26.10
6270;DHT22;3168;51.684;6.954;2023-07-31T14:23:32;19.30;25.60
6270;DHT22;3168;51.684;6.954;2023-07-31T14:25:57;19.50;17.80
6270;DHT22;3168;51.684;6.954;2023-07-31T14:28:24;19.60;12.50
6270;DHT22;3168;51.684;6.954;2023-07-31T14:30:50;19.60;12.10
6270;DHT22;3168;51.684;6.954;2023-07-31T14:33:15;19.80;14.90
6270;DHT22;3168;51.684;6.954;2023-07-31T14:35:41;19.80;1.00
6270;DHT22;3168;51.684;6.954;2023-07-31T14:38:07;19.80;1.60
6270;DHT22;3168;51.684;6.954;2023-07-31T14:40:33;19.90;7.40
6270;DHT22;3168;51.684;6.954;2023-07-31T14:42:58;19.70;1.00
6270;DHT22;3168;51.684;6.954;2023-07-31T14:45:24;19.70;1.30
6270;DHT22;3168;51.684;6.954;2023-07-31T14:47:50;19.60;1.00
6270;DHT22;3168;51.684;6.954;2023-07-31T14:50:17;19.60;4.00
6270;DHT22;3168;51.684;6.954;2023-07-31T14:52:42;19.60;3.60
6270;DHT22;3168;51.684;6.954;2023-07-31T14:55:08;19.50;1.00
6270;DHT22;3168;51.684;6.954;2023-07-31T14:57:34;19.50;2.70
6270;DHT22;3168;51.684;6.954;2023-07-31T15:00:00;19.50;1.00
6270;DHT22;3168;51.684;6.954;2023-07-31T15:02:26;19.60;1.00
6270;DHT22;3168;51.684;6.954;2023-07-31T15:04:51;19.60;1.00
6270;DHT22;3168;51.684;6.954;2023-07-31T15:07:17;19.60;1.00
6270;DHT22;3168;51.684;6.954;2023-07-31T15:09:43;19.60;1.00
6270;DHT22;3168;51.684;6.954;2023-07-31T15:12:09;19.60;1.00
6270;DHT22;3168;51.684;6.954;2023-07-31T15:14:35;19.50;1.80
6270;DHT22;3168;51.684;6.954;2023-07-31T15:17:01;19.30;1.00
6270;DHT22;3168;51.684;6.954;2023-07-31T15:19:26;19.10;21.30
6270;DHT22;3168;51.684;6.954;2023-07-31T15:21:53;18.70;60.90
6270;DHT22;3168;51.684;6.954;2023-07-31T15:24:19;18.70;59.20
6270;DHT22;3168;51.684;6.954;2023-07-31T15:26:44;18.60;73.50
6270;DHT22;3168;51.684;6.954;2023-07-31T15:29:10;18.50;88.20
6270;DHT22;3168;51.684;6.954;2023-07-31T15:31:36;18.40;95.30
6270;DHT22;3168;51.684;6.954;2023-07-31T15:34:01;18.30;99.90
6270;DHT22;3168;51.684;6.954;2023-07-31T15:36:27;18.30;99.90
6270;DHT22;3168;51.684;6.954;2023-07-31T15:38:53;18.20;99.90
6270;DHT22;3168;51.684;6.954;2023-07-31T15:41:19;18.20;99.90
6270;DHT22;3168;51.684;6.954;2023-07-31T15:43:45;18.10;99.90
6270;DHT22;3168;51.684;6.954;2023-07-31T15:46:11;18.00;99.90
6270;DHT22;3168;51.684;6.954;2023-07-31T15:48:36;17.90;99.90
6270;DHT22;3168;51.684;6.954;2023-07-31T15:51:02;18.00;99.90
6270;DHT22;3168;51.684;6.954;2023-07-31T15:53:28;17.90;99.90
6270;DHT22;3168;51.684;6.954;2023-07-31T15:55:54;17.90;99.90
6270;DHT22;3168;51.684;6.954;2023-07-31T15:58:20;17.90;99.90